createdAt,value
2022-11-28T00:00:09.450Z,3.50
2022-11-28T00:01:43.347Z,3.50
2022-11-28T00:03:16.187Z,3.50
2022-11-28T00:04:51.496Z,3.50
2022-11-28T00:06:24.214Z,3.50
2022-11-28T00:07:57.194Z,3.50
2022-11-28T00:09:30.015Z,3.60
2022-11-28T00:11:05.603Z,3.60
2022-11-28T00:12:38.425Z,3.60
2022-11-28T00:14:11.774Z,3.50
2022-11-28T00:15:44.512Z,3.60
2022-11-28T00:17:17.278Z,3.50
2022-11-28T00:18:49.074Z,3.90
2022-11-28T00:20:21.825Z,3.60
2022-11-28T00:21:54.525Z,3.60
2022-11-28T00:23:27.242Z,3.60
2022-11-28T00:24:59.921Z,3.60
2022-11-28T00:26:35.912Z,3.60
2022-11-28T00:28:08.544Z,3.60
2022-11-28T00:29:41.256Z,3.50
2022-11-28T00:31:14.885Z,3.50
2022-11-28T00:32:47.586Z,3.50
2022-11-28T00:34:20.280Z,3.60
2022-11-28T00:35:58.409Z,3.50
2022-11-28T00:37:31.094Z,3.50
2022-11-28T00:39:03.882Z,3.60
2022-11-28T00:40:36.578Z,3.60
2022-11-28T00:42:10.618Z,3.50
2022-11-28T00:43:43.761Z,3.50
2022-11-28T00:45:16.461Z,3.50
2022-11-28T00:46:49.172Z,3.50
2022-11-28T00:48:20.955Z,3.50
2022-11-28T00:49:53.619Z,3.50
2022-11-28T00:51:27.106Z,3.50
2022-11-28T00:52:59.798Z,3.50
2022-11-28T00:54:32.482Z,3.50
2022-11-28T00:56:04.892Z,3.50
2022-11-28T00:57:38.976Z,3.50
2022-11-28T00:59:11.752Z,3.50
2022-11-28T01:00:43.596Z,3.50
2022-11-28T01:02:16.433Z,4.10
2022-11-28T01:03:49.808Z,3.60
2022-11-28T01:05:22.519Z,3.50
2022-11-28T01:06:56.773Z,3.60
2022-11-28T01:08:29.588Z,3.60
2022-11-28T01:10:02.303Z,3.60
2022-11-28T01:11:35.581Z,3.60
2022-11-28T01:13:09.681Z,3.60
2022-11-28T01:14:42.608Z,3.60
2022-11-28T01:16:15.828Z,3.60
2022-11-28T01:17:48.698Z,3.60
2022-11-28T01:19:21.467Z,3.70
2022-11-28T01:20:54.210Z,3.70
2022-11-28T01:22:26.909Z,3.70
2022-11-28T01:23:59.604Z,3.80
2022-11-28T01:25:32.345Z,3.80
2022-11-28T01:27:05.103Z,3.80
2022-11-28T01:28:39.221Z,3.80
2022-11-28T01:30:11.990Z,3.80
2022-11-28T01:31:44.828Z,3.70
2022-11-28T01:33:16.669Z,3.70
2022-11-28T01:34:49.372Z,3.80
2022-11-28T01:36:22.564Z,3.70
2022-11-28T01:37:54.260Z,3.70
2022-11-28T01:39:27.281Z,3.70
2022-11-28T01:40:59.015Z,3.70
2022-11-28T01:42:31.747Z,3.70
2022-11-28T01:44:07.742Z,3.70
2022-11-28T01:45:40.179Z,3.70
2022-11-28T01:47:12.921Z,3.70
2022-11-28T01:48:45.711Z,3.70
2022-11-28T01:50:18.781Z,3.70
2022-11-28T01:51:53.434Z,3.70
2022-11-28T01:53:27.482Z,3.70
2022-11-28T01:55:01.203Z,3.70
2022-11-28T01:56:39.481Z,3.70
2022-11-28T01:58:11.794Z,3.70
2022-11-28T01:59:48.274Z,3.70
2022-11-28T02:01:21.691Z,3.70
2022-11-28T02:02:57.168Z,3.70
2022-11-28T02:04:29.956Z,3.70
2022-11-28T02:06:03.109Z,3.80
2022-11-28T02:07:36.253Z,3.80
2022-11-28T02:09:12.236Z,3.80
2022-11-28T02:10:50.972Z,3.80
2022-11-28T02:12:29.080Z,3.80
2022-11-28T02:14:05.833Z,3.70
2022-11-28T02:15:53.122Z,3.80
2022-11-28T02:17:30.971Z,3.80
2022-11-28T02:19:11.358Z,3.90
2022-11-28T02:20:59.186Z,3.80
2022-11-28T02:22:36.029Z,3.80
2022-11-28T02:24:29.820Z,3.80
2022-11-28T02:26:17.465Z,3.80
2022-11-28T02:28:13.076Z,3.90
2022-11-28T02:29:58.486Z,3.80
2022-11-28T02:31:40.859Z,3.80
2022-11-28T02:33:17.628Z,3.80
2022-11-28T02:34:55.927Z,3.80
2022-11-28T02:36:30.834Z,3.80
2022-11-28T02:38:06.194Z,3.90
2022-11-28T02:39:45.692Z,3.80
2022-11-28T02:41:22.079Z,3.80
2022-11-28T02:42:57.857Z,3.80
2022-11-28T02:44:34.593Z,3.80
2022-11-28T02:46:11.678Z,3.90
2022-11-28T02:47:46.689Z,3.80
2022-11-28T02:49:23.274Z,3.80
2022-11-28T02:50:59.662Z,3.80
2022-11-28T02:52:35.573Z,3.90
2022-11-28T02:54:10.217Z,3.90
2022-11-28T02:55:44.142Z,3.90
2022-11-28T02:57:16.998Z,3.90
2022-11-28T02:58:48.734Z,3.90
2022-11-28T03:00:25.946Z,3.90
2022-11-28T03:01:59.069Z,3.90
2022-11-28T03:03:40.082Z,4.00
2022-11-28T03:05:18.498Z,4.00
2022-11-28T03:06:58.361Z,4.00
2022-11-28T03:08:37.001Z,4.00
2022-11-28T03:10:13.670Z,4.00
2022-11-28T03:11:49.214Z,4.00
2022-11-28T03:13:22.850Z,4.00
2022-11-28T03:14:56.548Z,4.00
2022-11-28T03:16:30.370Z,4.00
2022-11-28T03:18:05.322Z,4.00
2022-11-28T03:19:39.685Z,4.00
2022-11-28T03:21:17.945Z,4.00
2022-11-28T03:23:00.082Z,4.00
2022-11-28T03:24:34.939Z,4.00
2022-11-28T03:26:10.624Z,4.00
2022-11-28T03:27:45.965Z,4.00
2022-11-28T03:29:21.904Z,4.00
2022-11-28T03:30:56.085Z,4.00
2022-11-28T03:32:30.957Z,4.00
2022-11-28T03:34:05.562Z,4.00
2022-11-28T03:35:41.885Z,3.90
2022-11-28T03:37:19.113Z,3.90
2022-11-28T03:38:54.099Z,3.90
2022-11-28T03:40:28.817Z,3.90
2022-11-28T03:42:04.395Z,3.90
2022-11-28T03:43:39.613Z,4.00
2022-11-28T03:45:14.834Z,3.90
2022-11-28T03:46:49.636Z,3.90
2022-11-28T03:48:23.885Z,3.90
2022-11-28T03:49:56.717Z,3.90
2022-11-28T03:51:32.907Z,3.90
2022-11-28T03:53:09.377Z,4.00
2022-11-28T03:54:44.382Z,3.90
2022-11-28T03:56:20.769Z,3.90
2022-11-28T03:57:58.465Z,4.00
2022-11-28T03:59:33.366Z,4.00
2022-11-28T04:01:09.486Z,4.00
2022-11-28T04:02:45.649Z,4.00
2022-11-28T04:04:23.762Z,3.90
2022-11-28T04:06:00.509Z,3.90
2022-11-28T04:07:35.643Z,3.90
2022-11-28T04:09:14.504Z,4.00
2022-11-28T04:10:51.885Z,3.90
2022-11-28T04:12:29.717Z,3.90
2022-11-28T04:14:05.573Z,4.00
2022-11-28T04:15:40.565Z,4.00
2022-11-28T04:17:17.827Z,4.10
2022-11-28T04:18:53.610Z,4.10
2022-11-28T04:20:30.549Z,4.10
2022-11-28T04:22:04.192Z,4.10
2022-11-28T04:23:38.793Z,4.10
2022-11-28T04:25:13.813Z,4.10
2022-11-28T04:26:48.873Z,4.10
2022-11-28T04:28:23.346Z,4.10
2022-11-28T04:29:58.224Z,4.10
2022-11-28T04:31:31.338Z,4.10
2022-11-28T04:33:06.219Z,4.10
2022-11-28T04:34:41.564Z,4.10
2022-11-28T04:36:15.745Z,4.10
2022-11-28T04:37:48.837Z,4.10
2022-11-28T04:39:24.278Z,4.10
2022-11-28T04:41:01.469Z,4.10
2022-11-28T04:42:36.895Z,4.10
2022-11-28T04:44:11.397Z,4.10
2022-11-28T04:45:46.264Z,4.10
2022-11-28T04:47:19.714Z,4.20
2022-11-28T04:48:52.614Z,4.20
2022-11-28T04:50:26.960Z,4.20
2022-11-28T04:52:01.425Z,4.20
2022-11-28T04:53:36.637Z,4.20
2022-11-28T04:55:11.490Z,4.20
2022-11-28T04:56:46.994Z,4.20
2022-11-28T04:58:21.958Z,4.20
2022-11-28T04:59:55.249Z,4.20
2022-11-28T05:01:30.301Z,4.20
2022-11-28T05:03:03.428Z,4.20
2022-11-28T05:04:36.651Z,4.20
2022-11-28T05:06:10.077Z,4.20
2022-11-28T05:07:42.970Z,4.20
2022-11-28T05:09:15.909Z,4.20
2022-11-28T05:10:49.043Z,4.20
2022-11-28T05:12:23.174Z,4.20
2022-11-28T05:13:55.290Z,4.20
2022-11-28T05:15:28.026Z,4.20
2022-11-28T05:17:00.751Z,4.20
2022-11-28T05:18:33.963Z,4.20
2022-11-28T05:20:07.507Z,4.20
2022-11-28T05:21:40.214Z,4.20
2022-11-28T05:23:12.912Z,4.20
2022-11-28T05:24:46.113Z,4.20
2022-11-28T05:26:19.861Z,4.10
2022-11-28T05:27:53.932Z,4.10
2022-11-28T05:29:26.638Z,4.10
2022-11-28T05:30:59.342Z,4.10
2022-11-28T05:32:32.563Z,4.00
2022-11-28T05:34:05.319Z,4.10
2022-11-28T05:35:38.796Z,4.10
2022-11-28T05:37:11.545Z,4.10
2022-11-28T05:38:44.876Z,4.10
2022-11-28T05:40:17.883Z,4.10
2022-11-28T05:41:49.614Z,4.10
2022-11-28T05:43:23.705Z,4.10
2022-11-28T05:44:56.455Z,4.10
2022-11-28T05:46:30.050Z,4.10
2022-11-28T05:48:02.818Z,4.20
2022-11-28T05:49:35.561Z,4.20
2022-11-28T05:51:08.681Z,4.20
2022-11-28T05:52:41.515Z,4.20
2022-11-28T05:54:14.266Z,4.20
2022-11-28T05:55:47.474Z,4.20
2022-11-28T05:57:20.229Z,4.20
2022-11-28T05:58:54.827Z,4.30
2022-11-28T06:00:27.548Z,4.30
2022-11-28T06:02:00.389Z,4.30
2022-11-28T06:03:33.329Z,4.30
2022-11-28T06:05:27.171Z,4.30
2022-11-28T06:06:59.098Z,4.30
2022-11-28T06:08:31.923Z,4.30
2022-11-28T06:10:05.171Z,4.30
2022-11-28T06:11:37.893Z,4.30
2022-11-28T06:13:10.710Z,4.30
2022-11-28T06:14:44.763Z,4.40
2022-11-28T06:16:18.957Z,4.40
2022-11-28T06:17:51.755Z,4.30
2022-11-28T06:19:24.573Z,4.30
2022-11-28T06:20:57.524Z,4.30
2022-11-28T06:22:30.246Z,4.30
2022-11-28T06:24:02.971Z,4.30
2022-11-28T06:25:35.723Z,4.20
2022-11-28T06:27:08.599Z,4.20
2022-11-28T06:28:41.687Z,4.30
2022-11-28T06:30:16.198Z,4.30
2022-11-28T06:31:49.540Z,4.30
2022-11-28T06:33:22.466Z,4.30
2022-11-28T06:34:55.230Z,4.30
2022-11-28T06:36:28.285Z,4.20
2022-11-28T06:38:01.410Z,4.20
2022-11-28T06:39:34.105Z,4.20
2022-11-28T06:41:07.223Z,4.20
2022-11-28T06:42:39.945Z,4.20
2022-11-28T06:44:13.834Z,4.20
2022-11-28T06:45:47.957Z,4.30
2022-11-28T06:47:20.742Z,4.30
2022-11-28T06:48:53.902Z,4.30
2022-11-28T06:50:26.709Z,4.20
2022-11-28T06:51:59.469Z,4.30
2022-11-28T06:53:32.197Z,4.30
2022-11-28T06:55:05.006Z,4.30
2022-11-28T06:56:37.838Z,4.30
2022-11-28T06:58:10.590Z,4.30
2022-11-28T06:59:43.471Z,4.40
2022-11-28T07:01:18.613Z,4.40
2022-11-28T07:02:51.683Z,4.40
2022-11-28T07:04:24.577Z,4.40
2022-11-28T07:05:56.457Z,4.40
2022-11-28T07:07:29.338Z,4.40
2022-11-28T07:09:02.080Z,4.40
2022-11-28T07:10:34.809Z,4.40
2022-11-28T07:12:07.870Z,4.40
2022-11-28T07:13:41.297Z,4.40
2022-11-28T07:15:14.288Z,4.50
2022-11-28T07:16:49.246Z,4.50
2022-11-28T07:18:22.194Z,4.50
2022-11-28T07:19:55.500Z,4.50
2022-11-28T07:21:30.768Z,4.50
2022-11-28T07:23:03.508Z,4.50
2022-11-28T07:24:36.222Z,4.50
2022-11-28T07:26:09.106Z,4.50
2022-11-28T07:27:41.843Z,4.50
2022-11-28T07:29:15.500Z,4.60
2022-11-28T07:30:48.204Z,4.60
2022-11-28T07:32:22.330Z,4.60
2022-11-28T07:33:55.402Z,4.50
2022-11-28T07:35:28.136Z,4.60
2022-11-28T07:37:00.996Z,4.60
2022-11-28T07:38:34.532Z,4.60
2022-11-28T07:40:07.999Z,4.60
2022-11-28T07:41:40.770Z,4.60
2022-11-28T07:43:13.516Z,4.60
2022-11-28T07:44:46.667Z,4.60
2022-11-28T07:46:20.058Z,4.70
2022-11-28T07:47:54.237Z,4.70
2022-11-28T07:49:27.012Z,4.80
2022-11-28T07:50:59.700Z,4.80
2022-11-28T07:52:32.487Z,4.80
2022-11-28T07:54:05.593Z,4.80
2022-11-28T07:55:38.329Z,4.80
2022-11-28T07:57:12.737Z,4.80
2022-11-28T07:58:46.922Z,4.80
2022-11-28T08:00:20.368Z,4.80
2022-11-28T08:01:53.935Z,4.80
2022-11-28T08:03:28.510Z,4.80
2022-11-28T08:05:01.318Z,4.80
2022-11-28T08:06:36.796Z,4.80
2022-11-28T08:08:09.553Z,4.90
2022-11-28T08:09:42.589Z,4.90
2022-11-28T08:11:16.397Z,5.00
2022-11-28T08:12:49.127Z,5.00
2022-11-28T08:14:21.911Z,5.00
2022-11-28T08:15:54.659Z,5.00
2022-11-28T08:17:27.398Z,5.00
2022-11-28T08:19:02.472Z,5.00
2022-11-28T08:20:35.262Z,5.00
2022-11-28T08:22:07.989Z,5.00
2022-11-28T08:23:40.935Z,5.00
2022-11-28T08:25:13.629Z,5.00
2022-11-28T08:26:46.334Z,5.00
2022-11-28T08:28:19.014Z,5.00
2022-11-28T08:29:53.816Z,5.00
2022-11-28T08:31:27.814Z,5.10
2022-11-28T08:33:00.621Z,5.10
2022-11-28T08:34:34.788Z,5.10
2022-11-28T08:36:08.148Z,5.10
2022-11-28T08:37:40.985Z,5.10
2022-11-28T08:39:24.044Z,5.20
2022-11-28T08:41:01.592Z,5.20
2022-11-28T08:42:34.282Z,5.30
2022-11-28T08:44:07.091Z,5.30
2022-11-28T08:45:40.069Z,5.40
2022-11-28T08:47:13.215Z,5.40
2022-11-28T08:48:45.979Z,5.40
2022-11-28T08:50:20.212Z,5.40
2022-11-28T08:51:53.280Z,5.50
2022-11-28T08:53:26.208Z,5.50
2022-11-28T08:54:58.961Z,5.50
2022-11-28T08:56:31.682Z,5.50
2022-11-28T08:58:04.377Z,5.40
2022-11-28T08:59:37.181Z,5.50
2022-11-28T09:01:15.522Z,5.50
2022-11-28T09:02:48.277Z,5.60
2022-11-28T09:04:21.203Z,5.70
2022-11-28T09:06:00.742Z,5.80
2022-11-28T09:07:33.476Z,5.80
2022-11-28T09:09:06.368Z,5.80
2022-11-28T09:10:39.254Z,5.80
2022-11-28T09:12:11.971Z,5.80
2022-11-28T09:13:44.833Z,5.80
2022-11-28T09:15:18.323Z,5.80
2022-11-28T09:16:51.193Z,5.80
2022-11-28T09:18:24.111Z,5.90
2022-11-28T09:19:56.862Z,5.90
2022-11-28T09:21:30.970Z,6.00
2022-11-28T09:23:03.840Z,6.10
2022-11-28T09:24:36.581Z,6.10
2022-11-28T09:26:10.105Z,6.20
2022-11-28T09:27:42.997Z,6.20
2022-11-28T09:29:15.764Z,6.20
2022-11-28T09:30:48.491Z,6.20
2022-11-28T09:32:21.337Z,6.30
2022-11-28T09:33:54.699Z,6.40
2022-11-28T09:35:27.473Z,6.40
2022-11-28T09:37:04.802Z,6.30
2022-11-28T09:38:38.373Z,6.40
2022-11-28T09:40:16.264Z,6.40
2022-11-28T09:41:57.779Z,6.50
2022-11-28T09:43:32.291Z,6.50
2022-11-28T09:45:07.419Z,6.60
2022-11-28T09:46:40.696Z,6.60
2022-11-28T09:48:22.158Z,6.60
2022-11-28T09:49:58.103Z,6.70
2022-11-28T09:51:32.899Z,6.60
2022-11-28T09:53:13.586Z,6.60
2022-11-28T09:54:50.043Z,6.50
2022-11-28T09:56:23.395Z,6.50
2022-11-28T09:57:56.329Z,6.60
2022-11-28T09:59:30.061Z,6.60
2022-11-28T10:01:07.027Z,6.50
2022-11-28T10:02:44.235Z,6.60
2022-11-28T10:04:22.907Z,6.70
2022-11-28T10:06:08.502Z,6.60
2022-11-28T10:07:53.643Z,6.70
2022-11-28T10:09:33.710Z,6.80
2022-11-28T10:11:11.161Z,6.70
2022-11-28T10:12:48.128Z,6.80
2022-11-28T10:14:31.803Z,6.90
2022-11-28T10:16:07.255Z,7.00
2022-11-28T10:17:45.157Z,7.00
2022-11-28T10:19:52.720Z,7.00
2022-11-28T10:21:18.052Z,7.10
2022-11-28T10:22:52.898Z,7.10
2022-11-28T10:24:30.392Z,7.10
2022-11-28T10:26:08.382Z,7.10
2022-11-28T10:27:41.487Z,7.20
2022-11-28T10:29:22.715Z,7.30
2022-11-28T10:30:58.849Z,7.30
2022-11-28T10:32:32.876Z,7.30
2022-11-28T10:34:08.530Z,7.30
2022-11-28T10:35:43.681Z,7.20
2022-11-28T10:37:20.761Z,7.40
2022-11-28T10:38:53.645Z,7.30
2022-11-28T10:40:30.300Z,7.40
2022-11-28T10:42:15.374Z,7.40
2022-11-28T10:43:50.509Z,7.50
2022-11-28T10:45:27.180Z,7.60
2022-11-28T10:47:06.479Z,7.60
2022-11-28T10:48:41.742Z,7.70
2022-11-28T10:50:18.499Z,7.70
2022-11-28T10:51:57.295Z,7.70
2022-11-28T10:53:36.667Z,7.80
2022-11-28T10:55:18.310Z,7.80
2022-11-28T10:56:56.221Z,7.80
2022-11-28T10:58:33.664Z,7.80
2022-11-28T11:00:10.456Z,7.80
2022-11-28T11:01:47.373Z,7.80
2022-11-28T11:03:26.350Z,7.80
2022-11-28T11:05:02.459Z,7.90
2022-11-28T11:06:41.733Z,7.80
2022-11-28T11:08:21.932Z,7.80
2022-11-28T11:09:54.785Z,7.70
2022-11-28T11:11:28.744Z,7.70
2022-11-28T11:13:01.677Z,7.80
2022-11-28T11:14:37.101Z,7.80
2022-11-28T11:16:12.439Z,7.80
2022-11-28T11:17:45.295Z,7.80
2022-11-28T11:19:24.956Z,7.80
2022-11-28T11:21:08.169Z,7.80
2022-11-28T11:22:40.941Z,7.80
2022-11-28T11:24:16.726Z,7.80
2022-11-28T11:25:51.284Z,7.80
2022-11-28T11:27:24.058Z,7.80
2022-11-28T11:28:57.334Z,7.90
2022-11-28T11:30:32.136Z,7.90
2022-11-28T11:32:06.305Z,7.90
2022-11-28T11:33:39.375Z,8.00
2022-11-28T11:35:17.260Z,8.10
2022-11-28T11:36:50.710Z,8.10
2022-11-28T11:38:32.340Z,8.10
2022-11-28T11:40:21.781Z,8.10
2022-11-28T11:42:09.438Z,8.10
2022-11-28T11:43:42.234Z,8.10
2022-11-28T11:45:33.304Z,8.10
2022-11-28T11:47:08.552Z,8.10
2022-11-28T11:48:42.018Z,8.20
2022-11-28T11:50:18.622Z,8.20
2022-11-28T11:51:56.748Z,8.20
2022-11-28T11:53:29.577Z,8.20
2022-11-28T11:55:03.970Z,8.20
2022-11-28T11:56:38.104Z,8.10
2022-11-28T11:58:12.986Z,8.10
2022-11-28T11:59:48.426Z,8.10
2022-11-28T12:01:22.698Z,8.20
2022-11-28T12:02:59.246Z,8.10
2022-11-28T12:04:54.941Z,8.10
2022-11-28T12:06:28.943Z,8.10
2022-11-28T12:08:02.802Z,8.10
2022-11-28T12:09:39.228Z,8.20
2022-11-28T12:11:14.985Z,8.20
2022-11-28T12:12:47.723Z,8.20
2022-11-28T12:14:38.622Z,8.30
2022-11-28T12:16:15.972Z,8.30
2022-11-28T12:17:59.052Z,8.20
2022-11-28T12:19:39.386Z,8.30
2022-11-28T12:21:14.180Z,8.30
2022-11-28T12:22:50.121Z,8.30
2022-11-28T12:24:26.474Z,8.30
2022-11-28T12:26:02.518Z,8.30
2022-11-28T12:27:44.431Z,8.30
2022-11-28T12:29:23.455Z,8.20
2022-11-28T12:31:02.050Z,8.00
2022-11-28T12:32:40.187Z,8.10
2022-11-28T12:34:18.611Z,8.10
2022-11-28T12:35:59.005Z,8.20
2022-11-28T12:38:08.970Z,8.10
2022-11-28T12:39:40.269Z,8.20
2022-11-28T12:41:30.750Z,8.20
2022-11-28T12:43:12.105Z,8.20
2022-11-28T12:44:54.169Z,8.10
2022-11-28T12:46:29.187Z,8.10
2022-11-28T12:48:08.833Z,8.10
2022-11-28T12:49:47.819Z,8.10
2022-11-28T12:51:25.330Z,8.20
2022-11-28T12:53:03.510Z,8.20
2022-11-28T12:54:51.130Z,8.20
2022-11-28T12:56:34.087Z,8.20
2022-11-28T12:58:10.050Z,8.10
2022-11-28T12:59:48.724Z,8.10
2022-11-28T13:01:29.066Z,8.00
2022-11-28T13:03:06.362Z,8.00
2022-11-28T13:04:50.272Z,8.00
2022-11-28T13:06:29.702Z,8.00
2022-11-28T13:08:15.802Z,8.00
2022-11-28T13:09:54.022Z,8.00
2022-11-28T13:11:40.105Z,7.90
2022-11-28T13:13:15.937Z,8.00
2022-11-28T13:14:51.904Z,8.00
2022-11-28T13:16:28.391Z,7.90
2022-11-28T13:18:04.455Z,7.90
2022-11-28T13:19:41.289Z,7.90
2022-11-28T13:21:20.516Z,7.90
2022-11-28T13:22:58.579Z,7.80
2022-11-28T13:24:34.901Z,7.80
2022-11-28T13:26:10.297Z,7.80
2022-11-28T13:27:45.770Z,7.70
2022-11-28T13:29:23.037Z,7.70
2022-11-28T13:30:58.811Z,7.70
2022-11-28T13:32:36.976Z,7.70
2022-11-28T13:34:11.490Z,7.70
2022-11-28T13:35:45.281Z,7.70
2022-11-28T13:39:18.330Z,7.70
2022-11-28T13:40:52.926Z,7.70
2022-11-28T13:43:02.233Z,7.70
2022-11-28T13:44:25.593Z,7.70
2022-11-28T13:45:58.358Z,7.60
2022-11-28T13:47:34.882Z,7.60
2022-11-28T13:49:15.522Z,7.60
2022-11-28T13:51:06.551Z,7.60
2022-11-28T13:52:42.672Z,7.60
2022-11-28T13:54:48.919Z,7.50
2022-11-28T13:56:24.910Z,7.50
2022-11-28T13:57:58.101Z,7.40
2022-11-28T13:59:31.082Z,7.40
2022-11-28T14:01:06.782Z,7.40
2022-11-28T14:02:44.787Z,7.30
2022-11-28T14:04:18.927Z,7.30
2022-11-28T14:05:55.129Z,7.30
2022-11-28T14:07:30.754Z,7.20
2022-11-28T14:09:07.166Z,7.20
2022-11-28T14:10:47.552Z,7.10
2022-11-28T14:12:24.090Z,7.10
2022-11-28T14:14:23.982Z,7.10
2022-11-28T14:16:02.425Z,7.10
2022-11-28T14:17:43.001Z,7.10
2022-11-28T14:19:19.213Z,7.10
2022-11-28T14:20:57.401Z,7.00
2022-11-28T14:22:38.875Z,7.00
2022-11-28T14:24:16.228Z,7.00
2022-11-28T14:25:50.533Z,7.00
2022-11-28T14:27:26.181Z,7.00
2022-11-28T14:28:59.130Z,6.90
2022-11-28T14:30:33.306Z,6.90
2022-11-28T14:32:29.047Z,6.80
2022-11-28T14:34:00.001Z,6.80
2022-11-28T14:35:51.567Z,6.80
2022-11-28T14:37:37.009Z,6.80
2022-11-28T14:39:12.273Z,6.70
2022-11-28T14:41:06.344Z,6.70
2022-11-28T14:44:47.159Z,6.70
2022-11-28T14:46:30.141Z,6.70
2022-11-28T14:48:17.243Z,6.60
2022-11-28T14:49:50.295Z,6.60
2022-11-28T14:51:43.582Z,6.60
2022-11-28T14:53:37.418Z,6.60
2022-11-28T14:55:16.961Z,6.60
2022-11-28T14:56:53.951Z,6.60
2022-11-28T14:58:30.801Z,6.50
2022-11-28T15:00:07.754Z,6.50
2022-11-28T15:01:51.456Z,6.50
2022-11-28T15:03:29.136Z,6.50
2022-11-28T15:05:06.126Z,6.40
2022-11-28T15:06:39.617Z,6.40
2022-11-28T15:08:22.159Z,6.40
2022-11-28T15:10:02.691Z,6.40
2022-11-28T15:11:42.642Z,6.40
2022-11-28T15:13:25.300Z,6.40
2022-11-28T15:14:59.382Z,6.30
2022-11-28T15:16:33.387Z,6.30
2022-11-28T15:18:06.983Z,6.30
2022-11-28T15:19:41.067Z,6.30
2022-11-28T15:21:15.145Z,6.30
2022-11-28T15:22:48.015Z,6.30
2022-11-28T15:24:24.501Z,6.30
2022-11-28T15:25:58.082Z,6.30
2022-11-28T15:27:30.781Z,6.30
2022-11-28T15:29:10.233Z,6.30
2022-11-28T15:30:47.354Z,6.30
2022-11-28T15:32:20.069Z,6.20
2022-11-28T15:33:52.877Z,6.20
2022-11-28T15:35:25.825Z,6.20
2022-11-28T15:36:59.208Z,6.10
2022-11-28T15:38:32.728Z,6.20
2022-11-28T15:40:06.334Z,6.20
2022-11-28T15:41:39.041Z,6.10
2022-11-28T15:43:15.260Z,6.00
2022-11-28T15:44:47.999Z,6.10
2022-11-28T15:46:25.282Z,6.10
2022-11-28T15:47:58.563Z,6.10
2022-11-28T15:49:33.551Z,6.10
2022-11-28T15:51:07.732Z,6.10
2022-11-28T15:52:40.471Z,6.10
2022-11-28T15:54:26.544Z,6.00
2022-11-28T15:56:09.338Z,6.00
2022-11-28T15:57:42.029Z,6.00
2022-11-28T15:59:14.723Z,6.00
2022-11-28T16:00:49.391Z,6.00
2022-11-28T16:02:26.509Z,6.00
2022-11-28T16:04:00.717Z,6.00
2022-11-28T16:05:33.557Z,6.00
2022-11-28T16:07:06.828Z,6.00
2022-11-28T16:08:40.500Z,6.10
2022-11-28T16:10:21.197Z,6.00
2022-11-28T16:11:54.813Z,6.00
2022-11-28T16:13:28.856Z,6.00
2022-11-28T16:15:03.412Z,6.00
2022-11-28T16:16:38.050Z,6.00
2022-11-28T16:18:15.207Z,5.90
2022-11-28T16:19:51.112Z,5.90
2022-11-28T16:21:25.499Z,5.90
2022-11-28T16:22:59.413Z,5.90
2022-11-28T16:24:42.137Z,5.90
2022-11-28T16:26:22.949Z,5.90
2022-11-28T16:27:57.381Z,5.90
2022-11-28T16:29:34.657Z,5.90
2022-11-28T16:31:11.680Z,5.90
2022-11-28T16:32:44.463Z,5.90
2022-11-28T16:34:38.528Z,6.40
2022-11-28T16:36:12.395Z,5.80
2022-11-28T16:37:45.342Z,5.80
2022-11-28T16:39:18.490Z,5.80
2022-11-28T16:40:51.670Z,5.80
2022-11-28T16:42:24.399Z,5.80
2022-11-28T16:43:59.578Z,5.80
2022-11-28T16:45:33.487Z,5.80
2022-11-28T16:47:06.297Z,5.80
2022-11-28T16:48:47.373Z,5.70
2022-11-28T16:50:22.544Z,5.70
2022-11-28T16:52:14.170Z,5.70
2022-11-28T16:53:47.772Z,5.70
2022-11-28T16:55:44.173Z,5.70
2022-11-28T16:57:16.919Z,5.70
2022-11-28T16:58:49.651Z,5.70
2022-11-28T17:00:22.304Z,5.70
2022-11-28T17:01:55.242Z,5.70
2022-11-28T17:03:47.621Z,5.70
2022-11-28T17:05:20.342Z,5.70
2022-11-28T17:06:55.309Z,5.70
2022-11-28T17:08:30.462Z,5.70
2022-11-28T17:10:03.388Z,5.60
2022-11-28T17:11:37.531Z,5.60
2022-11-28T17:13:10.414Z,5.60
2022-11-28T17:14:44.070Z,5.60
2022-11-28T17:16:18.316Z,5.70
2022-11-28T17:17:50.992Z,5.60
2022-11-28T17:19:23.723Z,5.60
2022-11-28T17:20:56.500Z,5.70
2022-11-28T17:22:38.900Z,5.70
2022-11-28T17:24:15.770Z,5.70
2022-11-28T17:25:48.488Z,5.70
2022-11-28T17:27:21.258Z,5.60
2022-11-28T17:28:53.974Z,5.60
2022-11-28T17:30:26.658Z,5.60
2022-11-28T17:31:59.504Z,5.60
2022-11-28T17:33:32.237Z,5.70
2022-11-28T17:35:05.153Z,5.70
2022-11-28T17:36:37.982Z,5.60
2022-11-28T17:38:12.163Z,5.60
2022-11-28T17:40:05.450Z,5.60
2022-11-28T17:41:38.294Z,5.60
2022-11-28T17:43:16.251Z,5.60
2022-11-28T17:44:49.013Z,5.60
2022-11-28T17:46:21.968Z,5.60
2022-11-28T17:47:54.678Z,5.60
2022-11-28T17:49:27.664Z,5.60
2022-11-28T17:51:01.959Z,5.60
2022-11-28T17:52:34.714Z,5.60
2022-11-28T17:54:09.087Z,5.60
2022-11-28T17:55:42.522Z,5.60
2022-11-28T17:57:15.493Z,5.50
2022-11-28T17:58:48.271Z,5.50
2022-11-28T18:00:21.078Z,5.50
2022-11-28T18:01:54.003Z,5.50
2022-11-28T18:03:26.732Z,5.50
2022-11-28T18:04:59.606Z,5.50
2022-11-28T18:06:32.547Z,5.50
2022-11-28T18:08:05.595Z,5.50
2022-11-28T18:09:39.711Z,5.50
2022-11-28T18:11:13.036Z,5.50
2022-11-28T18:12:45.821Z,5.50
2022-11-28T18:14:19.879Z,5.50
2022-11-28T18:15:54.149Z,5.50
2022-11-28T18:17:26.934Z,5.50
2022-11-28T18:18:59.805Z,5.60
2022-11-28T18:20:32.574Z,5.60
2022-11-28T18:22:06.340Z,5.50
2022-11-28T18:23:39.656Z,5.60
2022-11-28T18:25:13.888Z,5.60
2022-11-28T18:26:46.842Z,5.60
2022-11-28T18:28:20.440Z,5.60
2022-11-28T18:29:53.246Z,5.60
2022-11-28T18:31:26.860Z,5.60
2022-11-28T18:32:59.663Z,5.60
2022-11-28T18:34:32.452Z,5.60
2022-11-28T18:36:12.088Z,5.60
2022-11-28T18:37:44.903Z,5.60
2022-11-28T18:39:17.863Z,5.60
2022-11-28T18:40:52.019Z,5.60
2022-11-28T18:42:24.828Z,5.60
2022-11-28T18:43:58.043Z,5.60
2022-11-28T18:45:30.915Z,5.60
2022-11-28T18:47:03.670Z,5.60
2022-11-28T18:48:37.902Z,5.50
2022-11-28T18:50:11.306Z,5.50
2022-11-28T18:51:44.210Z,5.50
2022-11-28T18:53:17.087Z,5.50
2022-11-28T18:54:49.932Z,5.60
2022-11-28T18:56:24.868Z,5.50
2022-11-28T18:57:57.617Z,5.50
2022-11-28T18:59:30.447Z,5.50
2022-11-28T19:01:09.271Z,5.50
2022-11-28T19:02:42.189Z,5.40
2022-11-28T19:04:16.787Z,5.40
2022-11-28T19:05:49.696Z,5.40
2022-11-28T19:07:22.907Z,5.40
2022-11-28T19:08:56.812Z,5.40
2022-11-28T19:10:29.601Z,5.40
2022-11-28T19:12:03.645Z,5.30
2022-11-28T19:13:36.465Z,5.40
2022-11-28T19:15:10.843Z,5.40
2022-11-28T19:16:44.867Z,5.40
2022-11-28T19:18:17.861Z,5.40
2022-11-28T19:19:50.620Z,5.40
2022-11-28T19:21:24.595Z,5.40
2022-11-28T19:22:57.390Z,5.40
2022-11-28T19:24:30.157Z,5.40
2022-11-28T19:26:03.671Z,5.40
2022-11-28T19:27:37.779Z,5.30
2022-11-28T19:29:10.658Z,5.30
2022-11-28T19:30:43.528Z,5.30
2022-11-28T19:32:16.963Z,5.30
2022-11-28T19:34:00.252Z,5.30
2022-11-28T19:35:34.121Z,5.30
2022-11-28T19:37:06.895Z,5.30
2022-11-28T19:38:40.110Z,5.30
2022-11-28T19:40:13.225Z,5.30
2022-11-28T19:41:46.337Z,5.40
2022-11-28T19:43:20.449Z,5.40
2022-11-28T19:44:53.233Z,5.40
2022-11-28T19:46:29.198Z,5.40
2022-11-28T19:48:05.130Z,5.40
2022-11-28T19:49:38.230Z,5.40
2022-11-28T19:51:12.009Z,5.40
2022-11-28T19:52:44.799Z,5.40
2022-11-28T19:54:19.513Z,5.40
2022-11-28T19:55:53.910Z,5.50
2022-11-28T19:57:26.785Z,5.50
2022-11-28T19:59:00.801Z,5.50
2022-11-28T20:00:33.573Z,5.40
2022-11-28T20:02:06.435Z,5.50
2022-11-28T20:03:40.445Z,5.50
2022-11-28T20:05:13.108Z,5.50
2022-11-28T20:06:45.856Z,5.40
2022-11-28T20:08:18.738Z,5.50
2022-11-28T20:09:51.573Z,5.50
2022-11-28T20:11:25.396Z,5.50
2022-11-28T20:12:58.109Z,5.50
2022-11-28T20:14:32.347Z,5.50
2022-11-28T20:16:04.677Z,5.50
2022-11-28T20:17:37.392Z,5.50
2022-11-28T20:19:10.868Z,5.50
2022-11-28T20:20:43.643Z,5.50
2022-11-28T20:22:16.490Z,5.40
2022-11-28T20:23:50.532Z,5.50
2022-11-28T20:25:23.181Z,5.50
2022-11-28T20:26:56.860Z,5.50
2022-11-28T20:28:31.530Z,5.40
2022-11-28T20:30:07.067Z,5.50
2022-11-28T20:31:41.977Z,5.50
2022-11-28T20:33:14.741Z,5.50
2022-11-28T20:34:47.532Z,5.50
2022-11-28T20:36:21.445Z,5.50
2022-11-28T20:37:54.172Z,5.50
2022-11-28T20:39:26.949Z,5.50
2022-11-28T20:40:59.467Z,5.50
2022-11-28T20:42:38.295Z,5.50
2022-11-28T20:44:12.922Z,5.50
2022-11-28T20:45:47.172Z,5.50
2022-11-28T20:47:19.889Z,5.50
2022-11-28T20:48:52.738Z,5.50
2022-11-28T20:50:25.477Z,5.50
2022-11-28T20:51:58.210Z,5.50
2022-11-28T20:53:32.207Z,5.50
2022-11-28T20:55:05.094Z,5.50
2022-11-28T20:57:04.997Z,5.50
2022-11-28T20:58:32.538Z,5.40
2022-11-28T21:00:05.797Z,5.40
2022-11-28T21:01:39.958Z,5.50
2022-11-28T21:03:12.726Z,5.40
2022-11-28T21:04:45.582Z,5.50
2022-11-28T21:06:18.649Z,5.50
2022-11-28T21:07:51.389Z,5.50
2022-11-28T21:09:24.136Z,5.50
2022-11-28T21:10:56.892Z,5.50
2022-11-28T21:12:29.686Z,5.40
2022-11-28T21:14:02.419Z,5.40